TimeEST,TemperatureF,Dew PointF,Humidity,Sea Level PressureIn,VisibilityMPH,Wind Direction,Wind SpeedMPH,Gust SpeedMPH,PrecipitationIn,Events,Conditions,WindDirDegrees,DateUTC
12:53 AM,66.9,64.0,90,30.05,10.0,South,8.1,16.1,0.00,,Overcast,190,2013-12-06 05:53:00
1:53 AM,66.9,63.0,87,30.05,10.0,SSW,11.5,-,N/A,,Overcast,210,2013-12-06 06:53:00
2:53 AM,66.0,62.1,87,30.04,10.0,SSW,10.4,16.1,N/A,,Partly Cloudy,200,2013-12-06 07:53:00
3:44 AM,66.2,62.6,88,30.04,10.0,SSW,10.4,-,N/A,,Mostly Cloudy,210,2013-12-06 08:44:00
3:53 AM,66.0,62.1,87,30.05,10.0,SSW,9.2,-,N/A,,Mostly Cloudy,200,2013-12-06 08:53:00
4:04 AM,66.2,62.6,88,30.03,10.0,SSW,9.2,-,N/A,,Overcast,210,2013-12-06 09:04:00
4:53 AM,64.9,61.0,87,30.04,10.0,SSW,12.7,17.3,N/A,,Clear,210,2013-12-06 09:53:00
5:53 AM,64.9,61.0,87,30.05,10.0,SSW,9.2,17.3,N/A,,Mostly Cloudy,210,2013-12-06 10:53:00
6:53 AM,64.0,60.1,87,30.06,10.0,SSW,9.2,-,N/A,,Clear,210,2013-12-06 11:53:00
7:53 AM,64.0,60.1,87,30.08,10.0,SW,9.2,-,N/A,,Clear,220,2013-12-06 12:53:00
8:53 AM,66.0,60.1,81,30.10,10.0,SSW,13.8,20.7,N/A,,Clear,210,2013-12-06 13:53:00
9:40 AM,66.2,60.8,83,30.09,10.0,SW,16.1,21.9,N/A,,Mostly Cloudy,220,2013-12-06 14:40:00
9:53 AM,68.0,61.0,78,30.11,10.0,SW,15.0,21.9,N/A,,Mostly Cloudy,220,2013-12-06 14:53:00
10:04 AM,69.8,60.8,73,30.09,10.0,SW,15.0,28.8,N/A,,Scattered Clouds,220,2013-12-06 15:04:00
10:53 AM,72.0,62.1,71,30.10,10.0,SW,18.4,28.8,N/A,,Partly Cloudy,220,2013-12-06 15:53:00
11:53 AM,73.9,63.0,68,30.08,10.0,SSW,11.5,20.7,N/A,,Scattered Clouds,210,2013-12-06 16:53:00
12:53 PM,75.9,63.0,64,30.04,10.0,SSW,15.0,23.0,N/A,,Partly Cloudy,210,2013-12-06 17:53:00
1:53 PM,75.9,62.1,62,30.01,10.0,SW,16.1,23.0,N/A,,Clear,220,2013-12-06 18:53:00
2:53 PM,77.0,61.0,58,30.00,10.0,SSW,15.0,24.2,N/A,,Clear,210,2013-12-06 19:53:00
3:53 PM,77.0,61.0,58,30.00,10.0,SSW,10.4,17.3,N/A,,Mostly Cloudy,200,2013-12-06 20:53:00
4:53 PM,75.9,62.1,62,30.01,10.0,SSW,9.2,-,N/A,,Mostly Cloudy,200,2013-12-06 21:53:00
5:53 PM,73.0,61.0,66,30.02,10.0,SSW,6.9,-,N/A,,Mostly Cloudy,200,2013-12-06 22:53:00
6:53 PM,72.0,63.0,73,30.03,10.0,SSW,6.9,-,N/A,,Clear,200,2013-12-06 23:53:00
7:53 PM,71.1,63.0,75,30.03,10.0,SSW,10.4,-,N/A,,Clear,200,2013-12-07 00:53:00
8:53 PM,71.1,63.0,75,30.01,10.0,SSW,9.2,-,N/A,,Clear,200,2013-12-07 01:53:00
9:53 PM,71.1,63.0,75,30.02,10.0,SSW,9.2,17.3,N/A,,Clear,210,2013-12-07 02:53:00
10:53 PM,70.0,62.1,76,30.04,10.0,SSW,8.1,-,N/A,,Clear,210,2013-12-07 03:53:00
11:53 PM,69.1,62.1,78,30.03,10.0,SSW,9.2,-,N/A,,Partly Cloudy,210,2013-12-07 04:53:00